Time;durP1;ratioP1;P1;durP2;ratioP2;P2;SDS_P1;SDS_P2;PMS_P1;PMS_P2;Temp;Humidity;BMP_temperature;BMP_pressure;BME280_temperature;BME280_humidity;BME280_pressure;Samples;Min_cycle;Max_cycle;Signal;HPM_P1;HPM_P2
2023/04/09 00:01:38;;;;;;;4.68;3.28;;;15.20;49.30;;;;;;5065996;28;45349;-70
2023/04/09 00:04:05;;;;;;;5.15;3.22;;;15.20;49.40;;;;;;5066231;28;45329;-67
2023/04/09 00:06:32;;;;;;;3.47;2.90;;;15.10;49.30;;;;;;5065699;28;46716;-70
2023/04/09 00:08:59;;;;;;;5.43;3.13;;;15.10;49.50;;;;;;5065767;28;45282;-69
2023/04/09 00:11:25;;;;;;;9.65;3.20;;;15.10;50.20;;;;;;5065986;28;45299;-69
2023/04/09 00:13:52;;;;;;;5.30;3.15;;;15.10;50.20;;;;;;5063381;28;45463;-71
2023/04/09 00:16:20;;;;;;;8.15;3.50;;;15.10;49.90;;;;;;5065481;28;46429;-66
2023/04/09 00:18:47;;;;;;;5.05;3.13;;;15.10;49.80;;;;;;5065698;28;45397;-68
2023/04/09 00:21:15;;;;;;;4.45;3.22;;;15.10;49.70;;;;;;5065777;28;45266;-67
2023/04/09 00:23:41;;;;;;;3.85;3.35;;;15.00;49.60;;;;;;5066019;28;45523;-68
2023/04/09 00:26:08;;;;;;;3.58;2.78;;;15.00;49.70;;;;;;5065157;28;45425;-68
2023/04/09 00:28:36;;;;;;;4.53;2.60;;;14.90;49.70;;;;;;5065635;28;45425;-67
2023/04/09 00:31:03;;;;;;;4.40;2.78;;;14.90;49.70;;;;;;5065621;28;45313;-66
2023/04/09 00:33:31;;;;;;;5.07;3.50;;;14.90;49.80;;;;;;5065255;28;45312;-67
2023/04/09 00:35:58;;;;;;;5.55;3.15;;;14.80;49.70;;;;;;5065276;28;46426;-68
2023/04/09 00:38:24;;;;;;;3.72;3.00;;;14.80;49.80;;;;;;5065275;28;45432;-68
2023/04/09 00:40:51;;;;;;;3.90;3.13;;;14.70;49.80;;;;;;5065635;28;45431;-68
2023/04/09 00:43:18;;;;;;;4.25;3.08;;;14.70;49.80;;;;;;5075346;28;45315;-68
2023/04/09 00:45:45;;;;;;;3.03;2.72;;;14.60;49.80;;;;;;5085639;28;47595;-68
2023/04/09 00:48:12;;;;;;;3.90;2.80;;;14.60;49.90;;;;;;5085534;28;45338;-68
2023/04/09 00:50:40;;;;;;;3.17;2.70;;;14.60;49.90;;;;;;5085719;28;45313;-68
2023/04/09 00:53:07;;;;;;;3.13;2.83;;;14.50;50.00;;;;;;5085844;28;45293;-68
2023/04/09 00:55:34;;;;;;;3.60;2.85;;;14.50;50.00;;;;;;5085315;28;46649;-68
2023/04/09 00:58:01;;;;;;;6.90;2.70;;;14.50;50.00;;;;;;5085748;28;45458;-68
2023/04/09 01:00:28;;;;;;;3.28;2.63;;;14.50;50.00;;;;;;5085626;28;45392;-68
2023/04/09 01:02:55;;;;;;;2.70;2.50;;;14.40;50.00;;;;;;5085857;28;45441;-69
2023/04/09 01:05:22;;;;;;;3.70;2.60;;;14.40;50.00;;;;;;5085171;28;45358;-68
2023/04/09 01:07:58;;;;;;;3.67;2.63;;;14.40;50.10;;;;;;5085227;28;45279;-69
2023/04/09 01:10:30;;;;;;;3.85;2.42;;;14.30;50.00;;;;;;5085840;28;45335;-68
2023/04/09 01:13:03;;;;;;;3.08;2.80;;;14.30;50.00;;;;;;5085535;28;45424;-69
2023/04/09 01:15:35;;;;;;;3.75;2.70;;;14.30;50.10;;;;;;5085199;28;46307;-68
2023/04/09 01:18:05;;;;;;;4.05;2.35;;;14.30;50.10;;;;;;5085211;28;45345;-69
2023/04/09 01:20:34;;;;;;;3.80;2.78;;;14.30;50.10;;;;;;5085897;28;45336;-68
2023/04/09 01:23:07;;;;;;;3.63;2.60;;;14.30;50.10;;;;;;5085487;28;45313;-69
2023/04/09 01:25:43;;;;;;;3.30;2.88;;;14.20;50.00;;;;;;5083203;28;46822;-68
2023/04/09 01:28:18;;;;;;;5.85;2.88;;;14.20;50.00;;;;;;5085093;28;45278;-69
2023/04/09 01:30:48;;;;;;;2.65;2.45;;;14.20;50.00;;;;;;5085351;28;45448;-69
2023/04/09 01:33:15;;;;;;;2.50;2.30;;;14.20;50.00;;;;;;5085599;28;45297;-68
2023/04/09 01:35:42;;;;;;;3.42;2.42;;;14.10;50.00;;;;;;5084818;28;47312;-69
2023/04/09 01:38:08;;;;;;;2.53;2.33;;;14.10;50.10;;;;;;5084877;28;45274;-68
2023/04/09 01:40:35;;;;;;;2.45;2.25;;;14.00;50.10;;;;;;5085247;28;45391;-68
2023/04/09 01:43:02;;;;;;;2.80;2.60;;;14.00;50.10;;;;;;5077618;28;45466;-68
2023/04/09 01:45:30;;;;;;;2.78;2.35;;;14.00;50.20;;;;;;5066658;28;46574;-68
2023/04/09 01:47:57;;;;;;;3.47;2.22;;;13.90;50.20;;;;;;5077903;28;45455;-68
2023/04/09 01:50:24;;;;;;;3.40;2.85;;;13.90;50.20;;;;;;5088894;28;45503;-68
2023/04/09 01:52:51;;;;;;;2.70;2.33;;;13.90;50.10;;;;;;5088787;28;45295;-69
2023/04/09 01:55:18;;;;;;;2.33;2.13;;;13.90;50.20;;;;;;5088273;28;45531;-68
2023/04/09 01:57:45;;;;;;;2.72;2.42;;;13.90;50.10;;;;;;5088178;28;45333;-68
2023/04/09 02:00:12;;;;;;;3.50;2.50;;;13.80;50.10;;;;;;5088567;28;45330;-68
2023/04/09 02:02:44;;;;;;;2.67;2.17;;;13.90;50.10;;;;;;5088721;28;45256;-68
2023/04/09 02:05:12;;;;;;;2.47;2.20;;;13.80;50.20;;;;;;5088311;28;46417;-68
2023/04/09 02:07:40;;;;;;;3.50;2.40;;;13.80;50.30;;;;;;5088193;28;45321;-68
2023/04/09 02:10:08;;;;;;;2.67;2.47;;;13.70;50.20;;;;;;5088550;28;45289;-68
2023/04/09 02:12:36;;;;;;;2.50;2.30;;;13.70;50.30;;;;;;5088511;28;45274;-68
2023/04/09 02:15:03;;;;;;;3.28;2.42;;;13.70;50.30;;;;;;5088092;28;47703;-69
2023/04/09 02:17:30;;;;;;;2.67;2.47;;;13.60;50.30;;;;;;5088060;28;45342;-68
2023/04/09 02:19:58;;;;;;;2.30;2.10;;;13.60;50.30;;;;;;5088262;28;45260;-68
2023/04/09 02:22:25;;;;;;;2.28;2.00;;;13.60;50.30;;;;;;5088394;28;45309;-68
2023/04/09 02:24:52;;;;;;;3.42;2.17;;;13.60;50.40;;;;;;5087799;28;45568;-68
2023/04/09 02:27:19;;;;;;;2.38;2.13;;;13.60;50.40;;;;;;5087593;28;45377;-68
2023/04/09 02:29:46;;;;;;;2.60;2.10;;;13.50;50.30;;;;;;5088040;28;45270;-68
2023/04/09 02:32:12;;;;;;;2.55;2.35;;;13.50;50.30;;;;;;5088281;28;45357;-68
2023/04/09 02:34:39;;;;;;;2.50;2.20;;;13.50;50.50;;;;;;5087738;28;45695;-68
2023/04/09 02:37:07;;;;;;;2.55;2.10;;;13.50;50.50;;;;;;5087526;28;45482;-68
2023/04/09 02:39:34;;;;;;;2.10;1.90;;;13.40;50.40;;;;;;5087905;28;45284;-68
2023/04/09 02:42:01;;;;;;;2.40;2.20;;;13.40;50.50;;;;;;5088083;28;45333;-68
2023/04/09 02:44:28;;;;;;;2.13;1.90;;;13.40;50.50;;;;;;5087583;28;45296;-68
2023/04/09 02:46:57;;;;;;;2.25;2.08;;;13.40;50.50;;;;;;5087542;28;45390;-68
2023/04/09 02:49:24;;;;;;;2.45;2.25;;;13.40;50.60;;;;;;5087812;28;45262;-68
2023/04/09 02:51:51;;;;;;;2.00;1.90;;;13.40;50.50;;;;;;5087924;28;45293;-69
2023/04/09 02:54:19;;;;;;;2.42;2.22;;;13.30;50.40;;;;;;5087475;28;45674;-68
2023/04/09 02:56:46;;;;;;;3.03;2.35;;;13.30;50.50;;;;;;5087016;28;45444;-68
2023/04/09 02:59:13;;;;;;;3.00;1.95;;;13.30;50.60;;;;;;5087389;28;45450;-68
2023/04/09 03:01:40;;;;;;;2.35;2.15;;;13.30;50.50;;;;;;5087900;28;45262;-68
2023/04/09 03:04:07;;;;;;;2.58;2.05;;;13.20;50.50;;;;;;5087224;28;46332;-68
2023/04/09 03:06:34;;;;;;;2.42;2.22;;;13.20;50.50;;;;;;5087300;28;45324;-69
2023/04/09 03:09:01;;;;;;;2.15;1.98;;;13.20;50.50;;;;;;5087422;28;45249;-68
2023/04/09 03:11:29;;;;;;;2.60;2.22;;;13.20;50.50;;;;;;5087562;28;45352;-68
2023/04/09 03:13:56;;;;;;;2.15;1.95;;;13.20;50.40;;;;;;5087260;28;45483;-68
2023/04/09 03:16:24;;;;;;;2.60;2.20;;;13.20;50.50;;;;;;5087381;28;45332;-68
2023/04/09 03:18:51;;;;;;;2.25;2.05;;;13.20;50.50;;;;;;5087266;28;45325;-68
2023/04/09 03:21:18;;;;;;;2.80;2.28;;;13.10;50.40;;;;;;5087982;28;45302;-68
2023/04/09 03:23:45;;;;;;;2.20;2.00;;;13.10;50.40;;;;;;5086907;28;45533;-68
2023/04/09 03:26:11;;;;;;;2.42;2.08;;;13.10;50.50;;;;;;5086671;28;45255;-68
2023/04/09 03:28:40;;;;;;;2.33;2.13;;;13.00;50.50;;;;;;5087000;28;45269;-68
2023/04/09 03:31:07;;;;;;;2.65;2.08;;;13.00;50.50;;;;;;5087302;28;45376;-68
2023/04/09 03:33:33;;;;;;;2.22;2.03;;;13.00;50.60;;;;;;5086964;28;46647;-68
2023/04/09 03:36:00;;;;;;;1.90;1.80;;;13.00;50.40;;;;;;5086882;28;45244;-67
2023/04/09 03:38:27;;;;;;;2.40;2.20;;;13.00;50.50;;;;;;5086975;28;45345;-68
2023/04/09 03:40:54;;;;;;;2.92;2.13;;;13.00;51.00;;;;;;5087100;28;45296;-67
2023/04/09 03:43:21;;;;;;;2.00;1.85;;;13.00;50.30;;;;;;5075487;28;45493;-67
2023/04/09 03:45:49;;;;;;;2.28;1.90;;;13.00;50.30;;;;;;5066337;28;45348;-67
2023/04/09 03:48:16;;;;;;;2.10;2.00;;;13.00;50.40;;;;;;5078865;28;45258;-67
2023/04/09 03:50:42;;;;;;;2.30;1.90;;;13.00;50.40;;;;;;5087012;28;45361;-67
2023/04/09 03:53:09;;;;;;;2.28;1.95;;;13.00;50.30;;;;;;5086595;28;46360;-67
2023/04/09 03:55:37;;;;;;;2.08;1.80;;;12.90;50.30;;;;;;5086997;28;45498;-67
2023/04/09 03:58:04;;;;;;;2.65;2.08;;;12.90;50.40;;;;;;5086558;28;45369;-67
2023/04/09 04:00:31;;;;;;;2.03;1.60;;;12.90;50.40;;;;;;5086889;28;45233;-67
2023/04/09 04:02:59;;;;;;;2.30;2.00;;;12.90;50.40;;;;;;5086717;28;45341;-67
2023/04/09 04:05:26;;;;;;;2.33;2.05;;;12.90;50.40;;;;;;5086302;28;45393;-67
2023/04/09 04:07:53;;;;;;;3.30;2.10;;;12.90;50.40;;;;;;5085553;28;45334;-67
2023/04/09 04:10:19;;;;;;;2.10;1.90;;;12.90;50.30;;;;;;5086624;28;45419;-67
2023/04/09 04:12:46;;;;;;;2.03;1.80;;;12.90;50.30;;;;;;5086169;28;46395;-68
2023/04/09 04:15:13;;;;;;;2.40;2.20;;;12.90;50.40;;;;;;5086478;28;45371;-67
2023/04/09 04:17:40;;;;;;;2.03;1.77;;;12.80;50.30;;;;;;5086418;28;45254;-67
2023/04/09 04:20:09;;;;;;;2.13;1.92;;;12.80;50.20;;;;;;5086352;28;45353;-67
2023/04/09 04:22:36;;;;;;;2.30;2.10;;;12.80;50.20;;;;;;5086204;28;47329;-67
2023/04/09 04:25:03;;;;;;;2.35;2.10;;;12.80;50.20;;;;;;5085978;28;45297;-67
2023/04/09 04:27:30;;;;;;;2.65;1.83;;;12.80;50.10;;;;;;5065919;28;45284;-67
2023/04/09 04:29:58;;;;;;;1.90;1.77;;;12.80;50.10;;;;;;5066046;28;45455;-67
2023/04/09 04:32:25;;;;;;;2.35;1.95;;;12.80;50.20;;;;;;5065740;28;46640;-67
2023/04/09 04:34:52;;;;;;;1.77;1.67;;;12.80;50.20;;;;;;5065580;28;45317;-67
2023/04/09 04:37:20;;;;;;;2.45;2.25;;;12.80;50.20;;;;;;5065807;28;45313;-67
2023/04/09 04:39:47;;;;;;;2.75;1.80;;;12.80;50.20;;;;;;5065922;28;45325;-67
2023/04/09 04:42:14;;;;;;;2.53;2.33;;;12.80;50.20;;;;;;5065507;28;45380;-67
2023/04/09 04:44:41;;;;;;;3.30;2.17;;;12.80;50.20;;;;;;5065641;28;45342;-67
2023/04/09 04:47:08;;;;;;;2.10;1.83;;;12.70;50.20;;;;;;5065685;28;45331;-67
2023/04/09 04:49:34;;;;;;;3.05;1.92;;;12.70;50.10;;;;;;5065659;28;45444;-67
2023/04/09 04:52:01;;;;;;;2.60;2.10;;;12.70;50.10;;;;;;5065413;28;45461;-67
2023/04/09 04:54:30;;;;;;;2.10;1.85;;;12.70;50.10;;;;;;5065399;28;45441;-67
2023/04/09 04:56:56;;;;;;;2.28;2.08;;;12.70;50.10;;;;;;5065454;28;45146;-67
2023/04/09 04:59:23;;;;;;;2.63;2.00;;;12.70;50.20;;;;;;5065732;28;45509;-67
2023/04/09 05:01:50;;;;;;;2.65;2.13;;;12.70;50.20;;;;;;5065381;28;47661;-67
2023/04/09 05:04:17;;;;;;;2.57;2.20;;;12.70;50.10;;;;;;5065211;28;45349;-68
2023/04/09 05:06:44;;;;;;;2.63;2.40;;;12.60;50.10;;;;;;5065409;28;45329;-68
2023/04/09 05:09:11;;;;;;;3.63;2.20;;;12.60;50.00;;;;;;5065984;28;45443;-68
2023/04/09 05:11:39;;;;;;;2.57;2.20;;;12.60;50.00;;;;;;5065147;28;45443;-67
2023/04/09 05:14:06;;;;;;;2.27;2.07;;;12.60;50.00;;;;;;5064933;28;45254;-67
2023/04/09 05:16:33;;;;;;;2.93;2.30;;;12.60;50.00;;;;;;5065250;28;45329;-67
2023/04/09 05:18:59;;;;;;;3.10;2.03;;;12.60;49.90;;;;;;5065244;28;45283;-67
2023/04/09 05:21:26;;;;;;;2.22;1.88;;;12.60;49.90;;;;;;5065020;28;46736;-68
2023/04/09 05:23:53;;;;;;;2.47;2.03;;;12.60;49.90;;;;;;5065100;28;45320;-67
2023/04/09 05:26:21;;;;;;;2.45;2.05;;;12.60;49.90;;;;;;5075779;28;45270;-68
2023/04/09 05:28:51;;;;;;;2.67;2.00;;;12.60;50.00;;;;;;5085543;28;45313;-66
2023/04/09 05:31:17;;;;;;;1.95;1.85;;;12.50;50.00;;;;;;5085388;28;46905;-67
2023/04/09 05:33:45;;;;;;;2.30;1.90;;;12.50;50.00;;;;;;5085387;28;45363;-67
2023/04/09 05:36:15;;;;;;;2.70;1.90;;;12.50;50.00;;;;;;5085403;28;45463;-67
2023/04/09 05:38:42;;;;;;;2.43;1.80;;;12.50;49.90;;;;;;5085416;28;45170;-67
2023/04/09 05:41:09;;;;;;;2.73;2.10;;;12.50;49.90;;;;;;5085060;28;45293;-67
2023/04/09 05:43:35;;;;;;;2.30;2.00;;;12.50;49.90;;;;;;5084964;28;45336;-66
2023/04/09 05:46:04;;;;;;;2.45;2.00;;;12.50;49.90;;;;;;5085272;28;45486;-67
2023/04/09 05:48:30;;;;;;;2.77;2.00;;;12.50;49.90;;;;;;5085207;28;45222;-66
2023/04/09 05:50:57;;;;;;;3.53;2.40;;;12.50;49.90;;;;;;5084869;28;47012;-66
2023/04/09 05:53:24;;;;;;;2.43;2.00;;;12.50;49.90;;;;;;5084976;28;45378;-66
2023/04/09 05:55:51;;;;;;;2.55;1.77;;;12.50;49.90;;;;;;5084969;28;45279;-66
2023/04/09 05:58:18;;;;;;;4.83;2.70;;;12.50;49.90;;;;;;5085156;28;45334;-67
2023/04/09 06:00:45;;;;;;;2.83;1.70;;;12.50;49.90;;;;;;5084627;28;45667;-67
2023/04/09 06:03:13;;;;;;;1.73;1.63;;;12.50;49.80;;;;;;5085174;28;45301;-67
2023/04/09 06:05:40;;;;;;;1.95;1.70;;;12.50;49.80;;;;;;5084813;28;45268;-67
2023/04/09 06:08:07;;;;;;;2.20;1.90;;;12.50;49.80;;;;;;5084981;28;45663;-66
2023/04/09 06:10:34;;;;;;;1.92;1.80;;;12.50;49.80;;;;;;5084683;28;46867;-66
2023/04/09 06:13:01;;;;;;;2.03;1.83;;;12.50;49.70;;;;;;5084569;28;46493;-67
2023/04/09 06:15:27;;;;;;;2.07;1.87;;;12.50;49.70;;;;;;5084984;28;45328;-67
2023/04/09 06:17:54;;;;;;;1.80;1.70;;;12.50;49.70;;;;;;5084775;28;45235;-66
2023/04/09 06:20:22;;;;;;;2.60;1.57;;;12.50;49.70;;;;;;5084572;28;46885;-66
2023/04/09 06:22:49;;;;;;;2.00;1.80;;;12.50;49.70;;;;;;5084482;28;45380;-67
2023/04/09 06:25:16;;;;;;;2.67;1.75;;;12.50;49.70;;;;;;5084500;28;45384;-67
2023/04/09 06:27:43;;;;;;;2.43;1.60;;;12.50;49.60;;;;;;5084773;28;45246;-67
2023/04/09 06:30:11;;;;;;;1.50;1.40;;;12.50;49.60;;;;;;5084517;28;45270;-66
2023/04/09 06:32:38;;;;;;;1.92;1.70;;;12.50;49.60;;;;;;5088098;28;45406;-67
2023/04/09 06:35:07;;;;;;;1.77;1.57;;;12.50;49.60;;;;;;5088003;28;45356;-66
2023/04/09 06:37:35;;;;;;;1.57;1.47;;;12.50;49.60;;;;;;5088161;28;45319;-66
2023/04/09 06:40:02;;;;;;;1.90;1.40;;;12.50;49.60;;;;;;5087918;28;46558;-67
2023/04/09 06:42:29;;;;;;;1.93;1.73;;;12.50;49.60;;;;;;5087679;28;45289;-66
2023/04/09 06:44:56;;;;;;;1.53;1.40;;;12.50;49.50;;;;;;5088122;28;45327;-67
2023/04/09 06:47:23;;;;;;;1.90;1.70;;;12.50;49.50;;;;;;5087887;28;45508;-66
2023/04/09 06:49:50;;;;;;;2.73;2.00;;;12.50;49.50;;;;;;5087499;28;45257;-67
2023/04/09 06:52:17;;;;;;;1.67;1.57;;;12.60;49.60;;;;;;5087718;28;45304;-66
2023/04/09 06:54:46;;;;;;;2.10;1.90;;;12.60;49.50;;;;;;5087706;28;45320;-67
2023/04/09 06:57:13;;;;;;;1.83;1.70;;;12.60;49.50;;;;;;5087889;28;45337;-68
2023/04/09 06:59:40;;;;;;;2.03;1.53;;;12.60;49.40;;;;;;5087510;28;46674;-66
2023/04/09 07:02:07;;;;;;;2.27;1.80;;;12.60;49.50;;;;;;5087427;28;45284;-68
2023/04/09 07:04:33;;;;;;;2.13;1.80;;;12.60;49.50;;;;;;5087447;28;45501;-67
2023/04/09 07:07:00;;;;;;;1.97;1.73;;;12.60;49.40;;;;;;5087727;28;45409;-68
2023/04/09 07:09:27;;;;;;;2.00;1.80;;;12.60;49.40;;;;;;5087238;28;45527;-68
2023/04/09 07:11:55;;;;;;;1.67;1.47;;;12.60;49.40;;;;;;5087241;28;45266;-68
2023/04/09 07:14:22;;;;;;;1.97;1.77;;;12.60;49.40;;;;;;5087600;28;45285;-68
2023/04/09 07:16:49;;;;;;;1.70;1.60;;;12.60;49.30;;;;;;5087590;28;45315;-68
2023/04/09 07:19:16;;;;;;;1.77;1.60;;;12.70;49.40;;;;;;5086996;28;45461;-68
2023/04/09 07:21:43;;;;;;;1.93;1.63;;;12.70;49.40;;;;;;5087194;28;45506;-68
2023/04/09 07:24:10;;;;;;;2.17;1.60;;;12.70;50.00;;;;;;5087197;28;45336;-68
2023/04/09 07:26:37;;;;;;;2.00;1.63;;;12.70;50.00;;;;;;5087027;28;45354;-68
2023/04/09 07:29:05;;;;;;;1.83;1.73;;;12.70;49.30;;;;;;5086929;28;45477;-68
2023/04/09 07:31:32;;;;;;;1.53;1.43;;;12.70;49.30;;;;;;5086821;28;45318;-68
2023/04/09 07:33:58;;;;;;;1.90;1.77;;;12.70;49.30;;;;;;5087149;28;45355;-68
2023/04/09 07:36:26;;;;;;;2.17;2.00;;;12.70;49.30;;;;;;5087235;28;45337;-68
2023/04/09 07:38:53;;;;;;;1.80;1.70;;;12.70;49.30;;;;;;5086632;28;46658;-68
2023/04/09 07:41:20;;;;;;;1.50;1.40;;;12.80;49.40;;;;;;5086439;28;45353;-68
2023/04/09 07:43:47;;;;;;;1.60;1.50;;;12.80;49.30;;;;;;5086140;28;45518;-68
2023/04/09 07:46:20;;;;;;;2.30;1.50;;;12.80;49.30;;;;;;5087180;28;45261;-68
2023/04/09 07:48:48;;;;;;;1.70;1.60;;;12.80;49.30;;;;;;5086148;28;46237;-68
2023/04/09 07:51:15;;;;;;;2.30;1.60;;;12.80;49.30;;;;;;5086719;28;45279;-68
2023/04/09 07:53:41;;;;;;;2.10;1.60;;;12.80;49.30;;;;;;5086610;28;45301;-68
2023/04/09 07:56:08;;;;;;;2.20;1.70;;;12.80;49.30;;;;;;5086948;28;45362;-68
2023/04/09 07:58:36;;;;;;;1.97;1.60;;;12.80;49.90;;;;;;5086437;28;45300;-68
2023/04/09 08:01:03;;;;;;;1.80;1.67;;;12.90;49.30;;;;;;5086550;28;45396;-68
2023/04/09 08:03:31;;;;;;;1.90;1.50;;;12.90;49.40;;;;;;5086641;28;45334;-68
2023/04/09 08:05:58;;;;;;;1.70;1.23;;;12.90;49.30;;;;;;5086918;28;45478;-68
2023/04/09 08:08:25;;;;;;;1.33;1.23;;;12.90;49.30;;;;;;5086137;28;45471;-68
2023/04/09 08:10:52;;;;;;;2.03;1.60;;;12.90;49.30;;;;;;5086321;28;45319;-68
2023/04/09 08:13:19;;;;;;;1.73;1.50;;;12.90;49.20;;;;;;5086580;28;45389;-68
2023/04/09 08:15:46;;;;;;;1.90;1.75;;;12.90;49.30;;;;;;5086637;28;45328;-68
2023/04/09 08:18:13;;;;;;;1.63;1.53;;;13.00;49.40;;;;;;5086013;28;45736;-68
2023/04/09 08:20:43;;;;;;;1.50;1.40;;;13.00;49.30;;;;;;5086273;28;45340;-68
2023/04/09 08:23:10;;;;;;;1.60;1.40;;;13.00;49.30;;;;;;5086311;28;45347;-68
2023/04/09 08:25:37;;;;;;;1.50;1.40;;;13.00;49.20;;;;;;5086156;28;45293;-68
2023/04/09 08:28:05;;;;;;;1.67;1.53;;;13.00;49.20;;;;;;5085947;28;49024;-68
2023/04/09 08:30:33;;;;;;;1.57;1.40;;;13.10;49.20;;;;;;5086029;28;45355;-68
2023/04/09 08:33:00;;;;;;;1.97;1.67;;;13.10;49.20;;;;;;5086391;28;45307;-68
2023/04/09 08:35:27;;;;;;;1.40;1.27;;;13.10;49.10;;;;;;5086394;28;45238;-69
2023/04/09 08:37:56;;;;;;;1.43;1.33;;;13.10;49.10;;;;;;5085598;28;46620;-68
2023/04/09 08:40:23;;;;;;;3.60;1.30;;;13.10;49.10;;;;;;5085797;28;45355;-68
2023/04/09 08:42:53;;;;;;;2.08;1.45;;;13.20;49.10;;;;;;5085877;28;45256;-68
2023/04/09 08:45:20;;;;;;;2.10;1.67;;;13.20;49.00;;;;;;5086269;28;45348;-68
2023/04/09 08:47:47;;;;;;;1.53;1.30;;;13.20;49.00;;;;;;5085504;28;45426;-68
2023/04/09 08:50:14;;;;;;;1.60;1.50;;;13.20;49.00;;;;;;5085875;28;45520;-67
2023/04/09 08:52:41;;;;;;;1.33;1.23;;;13.20;49.00;;;;;;5086002;28;45284;-67
2023/04/09 08:55:09;;;;;;;1.80;1.40;;;13.20;49.00;;;;;;5085476;28;45331;-67
2023/04/09 08:57:39;;;;;;;1.50;1.40;;;13.30;49.00;;;;;;5085713;28;46456;-67
2023/04/09 09:00:07;;;;;;;1.13;1.10;;;13.30;48.80;;;;;;5085525;28;45287;-67
2023/04/09 09:02:34;;;;;;;1.50;1.40;;;13.30;48.90;;;;;;5085700;28;45622;-67
2023/04/09 09:05:01;;;;;;;1.33;1.23;;;13.30;48.90;;;;;;5085735;28;45358;-67
2023/04/09 09:07:28;;;;;;;1.33;1.23;;;13.30;48.80;;;;;;5085190;28;46420;-67
2023/04/09 09:09:56;;;;;;;1.30;1.20;;;13.40;48.80;;;;;;5085412;28;45324;-67
2023/04/09 09:12:33;;;;;;;1.70;1.60;;;13.40;48.90;;;;;;5085725;28;45370;-67
2023/04/09 09:14:59;;;;;;;1.50;1.40;;;13.40;48.70;;;;;;5085774;28;45523;-69
2023/04/09 09:17:26;;;;;;;1.37;1.30;;;13.40;48.80;;;;;;5085142;28;45420;-69
2023/04/09 09:19:53;;;;;;;1.20;1.13;;;13.50;48.70;;;;;;5085410;28;45349;-69
2023/04/09 09:22:20;;;;;;;1.33;1.23;;;13.50;48.90;;;;;;5085479;28;45252;-67
2023/04/09 09:24:47;;;;;;;1.45;1.23;;;13.50;48.90;;;;;;5085587;28;45332;-67
2023/04/09 09:27:35;;;;;;;1.40;1.30;;;13.50;48.80;;;;;;5085005;28;46725;-67
2023/04/09 09:30:02;;;;;;;1.47;1.37;;;13.60;48.70;;;;;;5085173;28;45325;-68
2023/04/09 09:32:29;;;;;;;1.63;1.53;;;13.60;48.80;;;;;;5085341;28;45376;-68
2023/04/09 09:35:01;;;;;;;1.05;1.00;;;13.60;48.90;;;;;;5085618;28;45463;-68
2023/04/09 09:37:28;;;;;;;1.27;1.17;;;13.70;49.00;;;;;;5085059;28;45500;-68
2023/04/09 09:39:55;;;;;;;1.20;1.20;;;13.70;48.90;;;;;;5085425;28;45317;-68
2023/04/09 09:42:22;;;;;;;1.40;1.30;;;13.80;48.90;;;;;;5085143;28;45262;-68
2023/04/09 09:44:50;;;;;;;1.08;1.02;;;13.80;48.80;;;;;;5085604;28;45300;-68
2023/04/09 09:47:18;;;;;;;1.33;1.23;;;13.80;48.80;;;;;;5084814;28;46392;-68
2023/04/09 09:49:45;;;;;;;1.38;1.27;;;13.80;48.80;;;;;;5084896;28;45392;-68
2023/04/09 09:52:11;;;;;;;1.52;1.42;;;13.90;48.80;;;;;;5085051;28;45297;-68
2023/04/09 09:54:40;;;;;;;1.50;1.40;;;13.90;48.80;;;;;;5085297;28;45296;-68
2023/04/09 09:57:08;;;;;;;1.10;1.10;;;13.90;48.80;;;;;;5084712;28;46724;-68
2023/04/09 09:59:37;;;;;;;1.40;1.30;;;14.00;49.00;;;;;;5084672;28;45422;-68
2023/04/09 10:02:06;;;;;;;1.30;1.20;;;14.00;48.80;;;;;;5085150;28;45230;-68
2023/04/09 10:04:34;;;;;;;1.52;1.42;;;14.00;48.80;;;;;;5084992;28;45292;-68
2023/04/09 10:07:02;;;;;;;1.08;1.08;;;14.10;48.80;;;;;;5087483;28;45532;-68
2023/04/09 10:09:30;;;;;;;1.40;1.30;;;14.10;48.70;;;;;;5088238;28;45308;-68
2023/04/09 10:11:58;;;;;;;1.40;1.30;;;14.20;48.70;;;;;;5088368;28;45328;-68
2023/04/09 10:14:25;;;;;;;1.02;1.02;;;14.20;48.70;;;;;;5088451;28;45427;-68
2023/04/09 10:16:52;;;;;;;1.60;1.40;;;14.20;48.70;;;;;;5087977;28;46721;-68
2023/04/09 10:19:21;;;;;;;1.20;1.10;;;14.30;48.60;;;;;;5088043;28;45255;-68
2023/04/09 10:21:52;;;;;;;1.30;1.20;;;14.30;48.70;;;;;;5088197;28;45260;-68
2023/04/09 10:24:19;;;;;;;1.42;1.33;;;14.40;48.60;;;;;;5088396;28;45297;-68
2023/04/09 10:26:46;;;;;;;1.50;1.30;;;14.40;48.50;;;;;;5087621;28;45745;-68
2023/04/09 10:29:13;;;;;;;1.45;1.30;;;14.40;48.60;;;;;;5087876;28;45459;-68
2023/04/09 10:31:52;;;;;;;1.20;1.10;;;14.50;49.10;;;;;;5088346;28;45336;-69
2023/04/09 10:34:22;;;;;;;1.30;1.20;;;14.50;49.10;;;;;;5088222;28;45308;-68
2023/04/09 10:36:53;;;;;;;1.23;1.13;;;14.60;48.40;;;;;;5087670;28;45800;-69
2023/04/09 10:39:20;;;;;;;1.30;1.20;;;14.60;48.30;;;;;;5087744;28;45352;-68
2023/04/09 10:41:47;;;;;;;1.55;1.45;;;14.60;48.30;;;;;;5087983;28;45682;-69
2023/04/09 10:44:21;;;;;;;1.25;1.10;;;14.70;48.30;;;;;;5088017;28;45504;-69
2023/04/09 10:46:48;;;;;;;1.40;1.30;;;14.70;48.30;;;;;;5087464;28;46676;-68
2023/04/09 10:49:16;;;;;;;1.40;1.30;;;14.80;48.20;;;;;;5088014;28;45439;-69
2023/04/09 10:51:48;;;;;;;1.10;1.10;;;14.80;48.20;;;;;;5087661;28;45266;-68
2023/04/09 10:54:42;;;;;;;0.98;0.98;;;14.90;48.20;;;;;;5087758;28;45370;-69
2023/04/09 10:57:19;;;;;;;1.40;1.30;;;15.00;48.20;;;;;;5087313;28;46662;-68
2023/04/09 10:59:47;;;;;;;1.38;1.20;;;15.00;47.90;;;;;;5087389;28;45325;-69
2023/04/09 11:03:05;;;;;;;1.40;1.30;;;15.10;48.10;;;;;;5087702;28;45270;-69
2023/04/09 11:05:33;;;;;;;1.25;1.10;;;15.20;48.00;;;;;;5087543;28;45404;-69
2023/04/09 11:08:11;;;;;;;1.20;1.10;;;15.20;48.50;;;;;;5087202;28;46686;-69
2023/04/09 11:10:38;;;;;;;1.40;1.30;;;15.30;47.70;;;;;;5087245;28;45334;-69
2023/04/09 11:13:05;;;;;;;1.38;1.27;;;15.40;47.70;;;;;;5087535;28;45254;-69
2023/04/09 11:15:32;;;;;;;1.52;1.42;;;15.40;47.40;;;;;;5087560;28;45422;-69
2023/04/09 11:17:59;;;;;;;1.30;1.20;;;15.50;47.50;;;;;;5086820;27;46341;-69
2023/04/09 11:20:26;;;;;;;1.17;1.17;;;15.60;47.30;;;;;;5087055;28;45343;-69
2023/04/09 11:22:54;;;;;;;3.15;1.38;;;15.70;47.10;;;;;;5086462;28;45273;-70
2023/04/09 11:25:23;;;;;;;0.95;0.90;;;15.70;47.70;;;;;;5086532;28;45404;-72
2023/04/09 11:27:50;;;;;;;3.63;1.30;;;15.80;48.60;;;;;;5084478;28;46292;-72
2023/04/09 11:30:17;;;;;;;1.60;1.50;;;15.90;47.50;;;;;;5083313;28;45285;-72
2023/04/09 11:32:44;;;;;;;1.52;1.42;;;16.00;47.30;;;;;;5086322;28;45328;-69
2023/04/09 11:35:13;;;;;;;1.52;1.30;;;16.10;48.40;;;;;;5086936;28;45250;-69
2023/04/09 11:37:40;;;;;;;1.40;1.30;;;16.20;47.30;;;;;;5084862;28;45570;-68
2023/04/09 11:40:08;;;;;;;1.65;1.35;;;16.30;45.60;;;;;;5085402;28;45404;-68
2023/04/09 11:42:36;;;;;;;1.88;1.65;;;16.40;45.30;;;;;;5085513;28;45276;-69
2023/04/09 11:45:04;;;;;;;2.13;1.83;;;16.50;43.50;;;;;;5085441;28;45368;-68
2023/04/09 11:47:31;;;;;;;1.70;1.60;;;16.60;42.70;;;;;;5081947;28;47009;-68
2023/04/09 11:49:58;;;;;;;1.30;1.27;;;16.60;42.80;;;;;;5085194;28;45451;-68
2023/04/09 11:52:26;;;;;;;1.60;1.50;;;16.70;42.70;;;;;;5086017;27;45261;-69
2023/04/09 11:54:53;;;;;;;2.10;1.52;;;16.70;42.40;;;;;;5098683;27;45365;-68
2023/04/09 11:57:20;;;;;;;1.48;1.38;;;16.80;42.80;;;;;;5103408;27;45467;-69
2023/04/09 11:59:48;;;;;;;3.58;1.60;;;16.80;42.70;;;;;;5087390;27;45307;-69
2023/04/09 12:02:18;;;;;;;3.47;1.83;;;16.90;42.60;;;;;;5081171;27;45668;-69
2023/04/09 12:04:50;;;;;;;8.45;1.90;;;17.00;42.60;;;;;;5066228;28;45409;-69
2023/04/09 12:07:17;;;;;;;2.08;1.70;;;17.00;42.40;;;;;;5080667;27;45265;-69
2023/04/09 12:09:48;;;;;;;1.70;1.60;;;17.00;42.40;;;;;;5081851;28;45359;-68
2023/04/09 12:12:18;;;;;;;1.63;1.52;;;17.10;41.60;;;;;;5082966;27;45676;-69
2023/04/09 12:14:46;;;;;;;1.80;1.35;;;17.10;41.20;;;;;;5082201;28;45527;-68
2023/04/09 12:17:14;;;;;;;2.38;1.80;;;17.20;41.70;;;;;;5082815;27;46950;-69
2023/04/09 12:19:41;;;;;;;2.20;1.83;;;17.30;41.40;;;;;;5076997;28;45415;-71
2023/04/09 12:22:08;;;;;;;1.65;1.55;;;17.40;40.20;;;;;;5086357;27;45332;-68
2023/04/09 12:24:34;;;;;;;2.63;1.50;;;17.50;40.60;;;;;;5084987;28;45494;-68
2023/04/09 12:27:01;;;;;;;1.80;1.70;;;17.60;40.60;;;;;;5086261;27;46395;-70
2023/04/09 12:29:28;;;;;;;1.67;1.58;;;17.60;40.20;;;;;;5084388;27;45418;-70
2023/04/09 12:31:55;;;;;;;2.00;1.52;;;17.70;39.90;;;;;;5087261;27;45335;-69
2023/04/09 12:34:23;;;;;;;1.40;1.30;;;17.80;39.10;;;;;;5083829;27;45330;-69
2023/04/09 12:36:51;;;;;;;1.60;1.33;;;17.90;38.70;;;;;;5085069;27;45329;-69
2023/04/09 12:39:19;;;;;;;1.60;1.50;;;17.90;39.00;;;;;;5083548;28;45467;-68
2023/04/09 12:41:46;;;;;;;1.80;1.70;;;17.90;38.70;;;;;;5085514;28;45412;-70
2023/04/09 12:44:13;;;;;;;1.83;1.58;;;18.00;38.70;;;;;;5083531;28;45543;-70
2023/04/09 12:46:40;;;;;;;1.70;1.58;;;18.10;39.00;;;;;;5079148;27;45514;-70
2023/04/09 12:49:07;;;;;;;1.90;1.80;;;18.10;38.60;;;;;;5088186;27;45404;-70
2023/04/09 12:51:35;;;;;;;1.77;1.67;;;18.20;38.20;;;;;;5090769;27;45332;-71